Airfield :







YOU CAN JOIN US ON...

 
LOGIN :

Register | Disclaimer

   EN    FR    IT 

 









Legend :    VFR   Marginal VFR   IFR   Intensive IFR   Very Intensive IFR
Visi :
Ceiling :
>= 8 km
>= 3000ft
5 to 8 km
1000 to 3000 ft
1500m to 5 km
500 to 1000 ft
800 to 1500m
200 to 500 ft
< 800m
< 200 ft
Symbols :   Thunderstorms  Fog  Heavy snow  Heavy precipitations  Wind > 20 kt






- Airport Elevation : 72 ft
- IATA code : YDF


CYDF - Deer Lake

CURRENT METAR :
  • 240940Z 03006KT 10SM FEW009 BKN016 09/09 A3037 RMK SF2SC6 SLP285

EXPIRED METARs :
  • 240900Z 03008KT 8SM -DZ SCT008 OVC014 09/09 A3036 RMK SF4SC4 SLP283
  • 240800Z 03007KT 6SM -DZ BR BKN009 OVC018 09/09 A3035 RMK SF6SC2 SLP279
  • 240700Z 03009KT 6SM -DZ BR BKN008 OVC020 09/09 A3034 RMK SF6SC2 SLP275

TAF TAF CYDF
Valid from the 24 at 08:00 until the 24 at 20:00 UTC


240738Z 2408/2420 04008KT 6SM -RA -DZ BR SCT005 OVC010
TEMPO 2408/2412 21/2SM -DZ BR OVC005
FM241200 05010KT P6SM OVC015
TEMPO 2412/2414 6SM -RA -DZ BR OVC009
FM241400 05010KT P6SM BKN025
TEMPO 2414/2418 BKN020 RMK NXT FCST BY 241400Z
CZQX FIR / North America



MET'MAP, your aeronautical weather chart ! - Copyright ORBIFLY December 2007 - Disclaimer

ORBIFLY MET'MAP TEAM :

Programming & Development : Alexandra Zaïnal
Concept & original design : Baudouin d'Aumeries
Assistance for programming : Marc-Olivier Méhu
Technical & hardware support : Manuel Goepfert

Contact : metmap@orbifly.com




SOURCES & CREDITS :

   NOAA